sensor_id;sensor_type;location;lat;lon;timestamp;temperature;humidity
55436;DHT22;41307;53.142;6.430;2022-07-06T00:01:41;14.40;99.90
55436;DHT22;41307;53.142;6.430;2022-07-06T00:04:07;14.40;99.90
55436;DHT22;41307;53.142;6.430;2022-07-06T00:06:33;14.30;99.90
55436;DHT22;41307;53.142;6.430;2022-07-06T00:08:59;14.30;99.90
55436;DHT22;41307;53.142;6.430;2022-07-06T00:11:25;14.30;99.90
55436;DHT22;41307;53.142;6.430;2022-07-06T00:13:51;14.20;99.90
55436;DHT22;41307;53.142;6.430;2022-07-06T00:16:18;14.20;99.90
55436;DHT22;41307;53.142;6.430;2022-07-06T00:18:44;14.20;99.90
55436;DHT22;41307;53.142;6.430;2022-07-06T00:21:10;14.20;99.90
55436;DHT22;41307;53.142;6.430;2022-07-06T00:23:35;14.10;99.90
55436;DHT22;41307;53.142;6.430;2022-07-06T00:26:01;14.10;99.90
55436;DHT22;41307;53.142;6.430;2022-07-06T00:28:27;14.10;99.90
55436;DHT22;41307;53.142;6.430;2022-07-06T00:30:53;14.10;99.90
55436;DHT22;41307;53.142;6.430;2022-07-06T00:33:19;14.10;99.90
55436;DHT22;41307;53.142;6.430;2022-07-06T00:35:45;14.10;99.90
55436;DHT22;41307;53.142;6.430;2022-07-06T00:38:11;14.10;99.90
55436;DHT22;41307;53.142;6.430;2022-07-06T00:40:37;14.10;99.90
55436;DHT22;41307;53.142;6.430;2022-07-06T00:43:02;14.10;99.90
55436;DHT22;41307;53.142;6.430;2022-07-06T00:45:28;14.10;99.90
55436;DHT22;41307;53.142;6.430;2022-07-06T00:47:54;14.10;99.90
55436;DHT22;41307;53.142;6.430;2022-07-06T00:50:21;14.10;99.90
55436;DHT22;41307;53.142;6.430;2022-07-06T00:52:52;14.00;99.90
55436;DHT22;41307;53.142;6.430;2022-07-06T00:55:24;14.10;99.90
55436;DHT22;41307;53.142;6.430;2022-07-06T00:57:50;14.10;99.90
55436;DHT22;41307;53.142;6.430;2022-07-06T01:00:18;14.00;99.90
55436;DHT22;41307;53.142;6.430;2022-07-06T01:02:47;14.00;99.90
55436;DHT22;41307;53.142;6.430;2022-07-06T01:05:14;14.10;99.90
55436;DHT22;41307;53.142;6.430;2022-07-06T01:07:45;14.00;99.90
55436;DHT22;41307;53.142;6.430;2022-07-06T01:10:12;14.00;99.90
55436;DHT22;41307;53.142;6.430;2022-07-06T01:12:40;14.00;99.90
55436;DHT22;41307;53.142;6.430;2022-07-06T01:15:09;14.00;99.90
55436;DHT22;41307;53.142;6.430;2022-07-06T01:17:35;14.00;99.90
55436;DHT22;41307;53.142;6.430;2022-07-06T01:20:13;14.10;99.90
55436;DHT22;41307;53.142;6.430;2022-07-06T01:22:38;14.10;99.90
55436;DHT22;41307;53.142;6.430;2022-07-06T01:25:06;14.10;99.90
55436;DHT22;41307;53.142;6.430;2022-07-06T01:27:34;14.10;99.90
55436;DHT22;41307;53.142;6.430;2022-07-06T01:30:02;14.10;99.90
55436;DHT22;41307;53.142;6.430;2022-07-06T01:32:28;14.10;99.90
55436;DHT22;41307;53.142;6.430;2022-07-06T01:34:54;14.10;99.90
55436;DHT22;41307;53.142;6.430;2022-07-06T01:37:20;14.00;99.90
55436;DHT22;41307;53.142;6.430;2022-07-06T01:39:45;14.00;99.90
55436;DHT22;41307;53.142;6.430;2022-07-06T01:42:11;14.10;99.90
55436;DHT22;41307;53.142;6.430;2022-07-06T01:44:37;14.00;99.90
55436;DHT22;41307;53.142;6.430;2022-07-06T01:47:06;14.00;99.90
55436;DHT22;41307;53.142;6.430;2022-07-06T01:49:31;14.10;99.90
55436;DHT22;41307;53.142;6.430;2022-07-06T01:51:57;14.00;99.90
55436;DHT22;41307;53.142;6.430;2022-07-06T01:54:23;14.00;99.90
55436;DHT22;41307;53.142;6.430;2022-07-06T01:56:49;14.00;99.90
55436;DHT22;41307;53.142;6.430;2022-07-06T01:59:14;14.00;99.90
55436;DHT22;41307;53.142;6.430;2022-07-06T02:01:40;14.00;99.90
55436;DHT22;41307;53.142;6.430;2022-07-06T02:04:06;14.00;99.90
55436;DHT22;41307;53.142;6.430;2022-07-06T02:06:31;14.00;99.90
55436;DHT22;41307;53.142;6.430;2022-07-06T02:08:57;14.00;99.90
55436;DHT22;41307;53.142;6.430;2022-07-06T02:11:23;14.00;99.90
55436;DHT22;41307;53.142;6.430;2022-07-06T02:13:48;14.10;99.90
55436;DHT22;41307;53.142;6.430;2022-07-06T02:16:14;14.00;99.90
55436;DHT22;41307;53.142;6.430;2022-07-06T02:18:40;14.10;99.90
55436;DHT22;41307;53.142;6.430;2022-07-06T02:21:06;14.10;99.90
55436;DHT22;41307;53.142;6.430;2022-07-06T02:23:32;14.10;99.90
55436;DHT22;41307;53.142;6.430;2022-07-06T02:25:57;14.10;99.90
55436;DHT22;41307;53.142;6.430;2022-07-06T02:28:23;14.10;99.90
55436;DHT22;41307;53.142;6.430;2022-07-06T02:30:49;14.10;99.90
55436;DHT22;41307;53.142;6.430;2022-07-06T02:33:15;14.10;99.90
55436;DHT22;41307;53.142;6.430;2022-07-06T02:35:40;14.10;99.90
55436;DHT22;41307;53.142;6.430;2022-07-06T02:38:09;14.10;99.90
55436;DHT22;41307;53.142;6.430;2022-07-06T02:40:37;14.00;99.90
55436;DHT22;41307;53.142;6.430;2022-07-06T02:43:04;14.00;99.90
55436;DHT22;41307;53.142;6.430;2022-07-06T02:45:30;14.00;99.90
55436;DHT22;41307;53.142;6.430;2022-07-06T02:47:55;13.90;99.90
55436;DHT22;41307;53.142;6.430;2022-07-06T02:50:23;13.80;99.90
55436;DHT22;41307;53.142;6.430;2022-07-06T02:52:49;13.80;99.90
55436;DHT22;41307;53.142;6.430;2022-07-06T02:55:15;13.80;99.90
55436;DHT22;41307;53.142;6.430;2022-07-06T02:57:41;13.80;99.90
55436;DHT22;41307;53.142;6.430;2022-07-06T03:00:07;13.80;99.90
55436;DHT22;41307;53.142;6.430;2022-07-06T03:02:35;13.70;99.90
55436;DHT22;41307;53.142;6.430;2022-07-06T03:05:01;13.70;99.90
55436;DHT22;41307;53.142;6.430;2022-07-06T03:07:27;13.60;99.90
55436;DHT22;41307;53.142;6.430;2022-07-06T03:09:52;13.60;99.90
55436;DHT22;41307;53.142;6.430;2022-07-06T03:12:18;13.60;99.90
55436;DHT22;41307;53.142;6.430;2022-07-06T03:14:44;13.60;99.90
55436;DHT22;41307;53.142;6.430;2022-07-06T03:17:10;13.50;99.90
55436;DHT22;41307;53.142;6.430;2022-07-06T03:19:35;13.50;99.90
55436;DHT22;41307;53.142;6.430;2022-07-06T03:22:01;13.40;99.90
55436;DHT22;41307;53.142;6.430;2022-07-06T03:24:27;13.30;99.90
55436;DHT22;41307;53.142;6.430;2022-07-06T03:26:53;13.30;99.90
55436;DHT22;41307;53.142;6.430;2022-07-06T03:29:19;13.20;99.90
55436;DHT22;41307;53.142;6.430;2022-07-06T03:31:46;13.20;99.90
55436;DHT22;41307;53.142;6.430;2022-07-06T03:34:12;13.10;99.90
55436;DHT22;41307;53.142;6.430;2022-07-06T03:36:38;13.10;99.90
55436;DHT22;41307;53.142;6.430;2022-07-06T03:39:04;13.00;99.90
55436;DHT22;41307;53.142;6.430;2022-07-06T03:41:30;13.10;99.90
55436;DHT22;41307;53.142;6.430;2022-07-06T03:43:55;12.90;99.90
55436;DHT22;41307;53.142;6.430;2022-07-06T03:46:21;13.00;99.90
55436;DHT22;41307;53.142;6.430;2022-07-06T03:48:47;12.90;99.90
55436;DHT22;41307;53.142;6.430;2022-07-06T03:51:13;12.90;99.90
55436;DHT22;41307;53.142;6.430;2022-07-06T03:53:38;12.90;99.90
55436;DHT22;41307;53.142;6.430;2022-07-06T03:56:04;12.90;99.90
55436;DHT22;41307;53.142;6.430;2022-07-06T03:58:48;12.90;99.90
55436;DHT22;41307;53.142;6.430;2022-07-06T04:01:14;12.90;99.90
55436;DHT22;41307;53.142;6.430;2022-07-06T04:03:40;12.90;99.90
55436;DHT22;41307;53.142;6.430;2022-07-06T04:06:06;13.00;99.90
55436;DHT22;41307;53.142;6.430;2022-07-06T04:08:32;12.90;99.90
55436;DHT22;41307;53.142;6.430;2022-07-06T04:10:58;13.00;99.90
55436;DHT22;41307;53.142;6.430;2022-07-06T04:13:23;13.00;99.90
55436;DHT22;41307;53.142;6.430;2022-07-06T04:15:51;13.10;99.90
55436;DHT22;41307;53.142;6.430;2022-07-06T04:18:17;13.10;99.90
55436;DHT22;41307;53.142;6.430;2022-07-06T04:20:43;13.20;99.90
55436;DHT22;41307;53.142;6.430;2022-07-06T04:23:08;13.40;99.90
55436;DHT22;41307;53.142;6.430;2022-07-06T04:25:34;13.50;99.90
55436;DHT22;41307;53.142;6.430;2022-07-06T04:28:00;13.60;99.90
55436;DHT22;41307;53.142;6.430;2022-07-06T04:30:26;13.60;99.90
55436;DHT22;41307;53.142;6.430;2022-07-06T04:32:52;13.60;99.90
55436;DHT22;41307;53.142;6.430;2022-07-06T04:35:18;13.70;99.90
55436;DHT22;41307;53.142;6.430;2022-07-06T04:37:44;13.70;99.90
55436;DHT22;41307;53.142;6.430;2022-07-06T04:40:11;13.70;99.90
55436;DHT22;41307;53.142;6.430;2022-07-06T04:42:38;13.70;99.90
55436;DHT22;41307;53.142;6.430;2022-07-06T04:45:04;13.70;99.90
55436;DHT22;41307;53.142;6.430;2022-07-06T04:47:30;13.70;99.90
55436;DHT22;41307;53.142;6.430;2022-07-06T04:49:57;13.70;99.90
55436;DHT22;41307;53.142;6.430;2022-07-06T04:52:22;13.80;99.90
55436;DHT22;41307;53.142;6.430;2022-07-06T04:54:48;13.80;99.90
55436;DHT22;41307;53.142;6.430;2022-07-06T04:57:14;13.80;99.90
55436;DHT22;41307;53.142;6.430;2022-07-06T04:59:40;13.80;99.90
55436;DHT22;41307;53.142;6.430;2022-07-06T05:02:06;13.90;99.90
55436;DHT22;41307;53.142;6.430;2022-07-06T05:04:31;13.90;99.90
55436;DHT22;41307;53.142;6.430;2022-07-06T05:06:58;14.00;99.90
55436;DHT22;41307;53.142;6.430;2022-07-06T05:09:24;14.00;99.90
55436;DHT22;41307;53.142;6.430;2022-07-06T05:11:50;14.10;99.90
55436;DHT22;41307;53.142;6.430;2022-07-06T05:14:15;14.10;99.90
55436;DHT22;41307;53.142;6.430;2022-07-06T05:16:41;14.10;99.90
55436;DHT22;41307;53.142;6.430;2022-07-06T05:19:07;14.10;99.90
55436;DHT22;41307;53.142;6.430;2022-07-06T05:21:32;14.10;99.90
55436;DHT22;41307;53.142;6.430;2022-07-06T05:23:58;14.10;99.90
55436;DHT22;41307;53.142;6.430;2022-07-06T05:26:24;14.10;99.90
55436;DHT22;41307;53.142;6.430;2022-07-06T05:28:50;14.10;99.90
55436;DHT22;41307;53.142;6.430;2022-07-06T05:31:16;14.00;99.90
55436;DHT22;41307;53.142;6.430;2022-07-06T05:33:41;14.00;99.90
55436;DHT22;41307;53.142;6.430;2022-07-06T05:36:07;14.00;99.90
55436;DHT22;41307;53.142;6.430;2022-07-06T05:38:36;13.90;99.90
55436;DHT22;41307;53.142;6.430;2022-07-06T05:41:01;14.00;99.90
55436;DHT22;41307;53.142;6.430;2022-07-06T05:43:27;13.90;99.90
55436;DHT22;41307;53.142;6.430;2022-07-06T05:45:55;14.00;99.90
55436;DHT22;41307;53.142;6.430;2022-07-06T05:48:21;14.30;99.90
55436;DHT22;41307;53.142;6.430;2022-07-06T05:51:05;14.50;99.90
55436;DHT22;41307;53.142;6.430;2022-07-06T05:53:31;14.90;99.90
55436;DHT22;41307;53.142;6.430;2022-07-06T05:55:57;15.10;99.90
55436;DHT22;41307;53.142;6.430;2022-07-06T05:58:23;15.20;99.90
55436;DHT22;41307;53.142;6.430;2022-07-06T06:00:50;15.30;99.90
55436;DHT22;41307;53.142;6.430;2022-07-06T06:03:17;15.30;99.90
55436;DHT22;41307;53.142;6.430;2022-07-06T06:05:42;15.30;99.90
55436;DHT22;41307;53.142;6.430;2022-07-06T06:08:08;15.30;99.90
55436;DHT22;41307;53.142;6.430;2022-07-06T06:10:34;15.20;99.90
55436;DHT22;41307;53.142;6.430;2022-07-06T06:13:00;15.20;99.90
55436;DHT22;41307;53.142;6.430;2022-07-06T06:15:34;15.00;99.90
55436;DHT22;41307;53.142;6.430;2022-07-06T06:18:03;15.30;99.90
55436;DHT22;41307;53.142;6.430;2022-07-06T06:20:32;15.30;99.90
55436;DHT22;41307;53.142;6.430;2022-07-06T06:22:58;15.40;99.90
55436;DHT22;41307;53.142;6.430;2022-07-06T06:25:38;15.40;99.90
55436;DHT22;41307;53.142;6.430;2022-07-06T06:28:06;15.60;99.90
55436;DHT22;41307;53.142;6.430;2022-07-06T06:30:32;15.50;99.90
55436;DHT22;41307;53.142;6.430;2022-07-06T06:33:15;15.50;99.90
55436;DHT22;41307;53.142;6.430;2022-07-06T06:35:44;15.60;99.90
55436;DHT22;41307;53.142;6.430;2022-07-06T06:38:10;15.60;99.90
55436;DHT22;41307;53.142;6.430;2022-07-06T06:40:36;15.70;99.90
55436;DHT22;41307;53.142;6.430;2022-07-06T06:43:02;15.70;99.90
55436;DHT22;41307;53.142;6.430;2022-07-06T06:45:28;15.90;99.90
55436;DHT22;41307;53.142;6.430;2022-07-06T06:47:54;16.20;99.90
55436;DHT22;41307;53.142;6.430;2022-07-06T06:50:20;16.40;99.90
55436;DHT22;41307;53.142;6.430;2022-07-06T06:52:49;17.40;99.90
55436;DHT22;41307;53.142;6.430;2022-07-06T06:55:16;19.00;99.90
55436;DHT22;41307;53.142;6.430;2022-07-06T06:57:41;20.40;99.90
55436;DHT22;41307;53.142;6.430;2022-07-06T07:00:08;21.60;99.90
55436;DHT22;41307;53.142;6.430;2022-07-06T07:02:34;21.80;99.90
55436;DHT22;41307;53.142;6.430;2022-07-06T07:05:00;21.30;99.90
55436;DHT22;41307;53.142;6.430;2022-07-06T07:07:25;20.80;99.90
55436;DHT22;41307;53.142;6.430;2022-07-06T07:09:54;20.10;99.90
55436;DHT22;41307;53.142;6.430;2022-07-06T07:12:20;19.60;99.90
55436;DHT22;41307;53.142;6.430;2022-07-06T07:14:45;19.40;99.90
55436;DHT22;41307;53.142;6.430;2022-07-06T07:17:15;20.20;99.90
55436;DHT22;41307;53.142;6.430;2022-07-06T07:19:43;21.40;99.90
55436;DHT22;41307;53.142;6.430;2022-07-06T07:22:09;22.40;99.90
55436;DHT22;41307;53.142;6.430;2022-07-06T07:24:38;23.20;99.90
55436;DHT22;41307;53.142;6.430;2022-07-06T07:27:04;23.30;99.90
55436;DHT22;41307;53.142;6.430;2022-07-06T07:29:33;23.70;99.10
55436;DHT22;41307;53.142;6.430;2022-07-06T07:32:01;23.70;96.80
55436;DHT22;41307;53.142;6.430;2022-07-06T07:34:38;24.10;95.20
55436;DHT22;41307;53.142;6.430;2022-07-06T07:37:09;24.60;92.90
55436;DHT22;41307;53.142;6.430;2022-07-06T07:39:38;24.40;91.60
55436;DHT22;41307;53.142;6.430;2022-07-06T07:42:07;24.80;90.00
55436;DHT22;41307;53.142;6.430;2022-07-06T07:44:36;24.50;88.70
55436;DHT22;41307;53.142;6.430;2022-07-06T07:47:07;24.30;88.60
55436;DHT22;41307;53.142;6.430;2022-07-06T07:49:33;23.10;85.60
55436;DHT22;41307;53.142;6.430;2022-07-06T07:51:58;22.40;86.40
55436;DHT22;41307;53.142;6.430;2022-07-06T07:54:24;22.10;86.80
55436;DHT22;41307;53.142;6.430;2022-07-06T07:56:50;21.90;85.20
55436;DHT22;41307;53.142;6.430;2022-07-06T07:59:15;21.80;87.20
55436;DHT22;41307;53.142;6.430;2022-07-06T08:01:41;21.80;86.00
55436;DHT22;41307;53.142;6.430;2022-07-06T08:04:07;21.70;86.50
55436;DHT22;41307;53.142;6.430;2022-07-06T08:06:33;21.90;86.60
55436;DHT22;41307;53.142;6.430;2022-07-06T08:08:59;22.30;86.00
55436;DHT22;41307;53.142;6.430;2022-07-06T08:11:25;22.70;84.90
55436;DHT22;41307;53.142;6.430;2022-07-06T08:13:51;23.00;82.90
55436;DHT22;41307;53.142;6.430;2022-07-06T08:16:17;23.40;82.90
55436;DHT22;41307;53.142;6.430;2022-07-06T08:18:42;23.40;81.00
55436;DHT22;41307;53.142;6.430;2022-07-06T08:21:08;23.70;80.30
55436;DHT22;41307;53.142;6.430;2022-07-06T08:23:34;23.80;77.70
55436;DHT22;41307;53.142;6.430;2022-07-06T08:26:01;23.70;77.40
55436;DHT22;41307;53.142;6.430;2022-07-06T08:28:27;23.50;77.00
55436;DHT22;41307;53.142;6.430;2022-07-06T08:30:53;22.80;77.40
55436;DHT22;41307;53.142;6.430;2022-07-06T08:33:20;22.60;79.60
55436;DHT22;41307;53.142;6.430;2022-07-06T08:35:46;22.40;80.10
55436;DHT22;41307;53.142;6.430;2022-07-06T08:38:14;22.60;81.60
55436;DHT22;41307;53.142;6.430;2022-07-06T08:40:49;22.80;80.00
55436;DHT22;41307;53.142;6.430;2022-07-06T08:43:17;23.10;79.70
55436;DHT22;41307;53.142;6.430;2022-07-06T08:45:44;23.20;80.70
55436;DHT22;41307;53.142;6.430;2022-07-06T08:48:12;23.80;79.90
55436;DHT22;41307;53.142;6.430;2022-07-06T08:50:38;24.10;78.50
55436;DHT22;41307;53.142;6.430;2022-07-06T08:53:04;24.00;77.50
55436;DHT22;41307;53.142;6.430;2022-07-06T08:55:30;24.00;76.70
55436;DHT22;41307;53.142;6.430;2022-07-06T08:57:57;23.50;76.70
55436;DHT22;41307;53.142;6.430;2022-07-06T09:00:25;22.90;77.90
55436;DHT22;41307;53.142;6.430;2022-07-06T09:02:54;22.10;79.90
55436;DHT22;41307;53.142;6.430;2022-07-06T09:05:23;21.50;82.10
55436;DHT22;41307;53.142;6.430;2022-07-06T09:07:50;21.10;84.00
55436;DHT22;41307;53.142;6.430;2022-07-06T09:10:20;20.80;85.40
55436;DHT22;41307;53.142;6.430;2022-07-06T09:12:47;20.90;87.40
55436;DHT22;41307;53.142;6.430;2022-07-06T09:15:14;21.30;89.60
55436;DHT22;41307;53.142;6.430;2022-07-06T09:17:41;21.90;90.60
55436;DHT22;41307;53.142;6.430;2022-07-06T09:20:12;22.20;88.80
55436;DHT22;41307;53.142;6.430;2022-07-06T09:22:38;22.10;87.70
55436;DHT22;41307;53.142;6.430;2022-07-06T09:25:16;22.00;87.40
55436;DHT22;41307;53.142;6.430;2022-07-06T09:27:46;21.80;87.60
55436;DHT22;41307;53.142;6.430;2022-07-06T09:30:14;21.40;87.00
55436;DHT22;41307;53.142;6.430;2022-07-06T09:32:40;21.30;87.70
55436;DHT22;41307;53.142;6.430;2022-07-06T09:35:06;21.50;89.10
55436;DHT22;41307;53.142;6.430;2022-07-06T09:37:32;22.30;90.50
55436;DHT22;41307;53.142;6.430;2022-07-06T09:39:58;22.80;89.40
55436;DHT22;41307;53.142;6.430;2022-07-06T09:42:29;22.50;87.20
55436;DHT22;41307;53.142;6.430;2022-07-06T09:44:54;22.20;86.20
55436;DHT22;41307;53.142;6.430;2022-07-06T09:47:20;21.90;87.10
55436;DHT22;41307;53.142;6.430;2022-07-06T09:49:46;21.70;86.30
55436;DHT22;41307;53.142;6.430;2022-07-06T09:52:15;21.50;86.90
55436;DHT22;41307;53.142;6.430;2022-07-06T09:54:41;21.70;86.90
55436;DHT22;41307;53.142;6.430;2022-07-06T09:57:07;21.90;87.10
55436;DHT22;41307;53.142;6.430;2022-07-06T09:59:35;22.20;87.70
55436;DHT22;41307;53.142;6.430;2022-07-06T10:02:06;22.40;85.20
55436;DHT22;41307;53.142;6.430;2022-07-06T10:04:32;22.80;84.90
55436;DHT22;41307;53.142;6.430;2022-07-06T10:06:59;23.00;83.60
55436;DHT22;41307;53.142;6.430;2022-07-06T10:09:27;23.20;82.10
55436;DHT22;41307;53.142;6.430;2022-07-06T10:11:56;23.60;83.10
55436;DHT22;41307;53.142;6.430;2022-07-06T10:14:24;23.90;80.80
55436;DHT22;41307;53.142;6.430;2022-07-06T10:16:51;24.40;80.30
55436;DHT22;41307;53.142;6.430;2022-07-06T10:19:19;25.00;78.90
55436;DHT22;41307;53.142;6.430;2022-07-06T10:21:45;25.00;77.10
55436;DHT22;41307;53.142;6.430;2022-07-06T10:24:12;25.00;76.50
55436;DHT22;41307;53.142;6.430;2022-07-06T10:26:40;25.10;74.60
55436;DHT22;41307;53.142;6.430;2022-07-06T10:29:06;25.10;74.20
55436;DHT22;41307;53.142;6.430;2022-07-06T10:31:35;24.80;73.70
55436;DHT22;41307;53.142;6.430;2022-07-06T10:34:06;24.40;73.20
55436;DHT22;41307;53.142;6.430;2022-07-06T10:36:41;24.00;74.00
55436;DHT22;41307;53.142;6.430;2022-07-06T10:39:07;23.40;75.50
55436;DHT22;41307;53.142;6.430;2022-07-06T10:41:52;23.00;75.70
55436;DHT22;41307;53.142;6.430;2022-07-06T10:44:21;23.10;76.30
55436;DHT22;41307;53.142;6.430;2022-07-06T10:49:17;23.20;73.70
55436;DHT22;41307;53.142;6.430;2022-07-06T10:51:43;23.50;74.40
55436;DHT22;41307;53.142;6.430;2022-07-06T10:54:10;23.70;74.50
55436;DHT22;41307;53.142;6.430;2022-07-06T10:56:40;23.50;74.90
55436;DHT22;41307;53.142;6.430;2022-07-06T10:59:11;23.20;74.90
55436;DHT22;41307;53.142;6.430;2022-07-06T11:01:37;23.20;76.20
55436;DHT22;41307;53.142;6.430;2022-07-06T11:06:33;24.10;74.40
55436;DHT22;41307;53.142;6.430;2022-07-06T11:09:10;24.10;72.70
55436;DHT22;41307;53.142;6.430;2022-07-06T11:16:38;23.70;74.80
55436;DHT22;41307;53.142;6.430;2022-07-06T11:19:05;24.20;75.40
55436;DHT22;41307;53.142;6.430;2022-07-06T11:24:02;24.70;73.40
55436;DHT22;41307;53.142;6.430;2022-07-06T11:26:31;25.00;71.00
55436;DHT22;41307;53.142;6.430;2022-07-06T11:28:58;25.00;68.80
55436;DHT22;41307;53.142;6.430;2022-07-06T11:31:26;24.80;69.50
55436;DHT22;41307;53.142;6.430;2022-07-06T11:33:52;25.10;69.80
55436;DHT22;41307;53.142;6.430;2022-07-06T11:36:20;25.40;68.80
55436;DHT22;41307;53.142;6.430;2022-07-06T11:38:48;25.40;65.60
55436;DHT22;41307;53.142;6.430;2022-07-06T11:41:14;25.40;67.20
55436;DHT22;41307;53.142;6.430;2022-07-06T11:43:42;25.50;66.40
55436;DHT22;41307;53.142;6.430;2022-07-06T11:49:03;25.30;65.70
55436;DHT22;41307;53.142;6.430;2022-07-06T11:51:33;25.40;66.40
55436;DHT22;41307;53.142;6.430;2022-07-06T11:54:03;25.60;66.00
55436;DHT22;41307;53.142;6.430;2022-07-06T11:56:32;25.90;65.70
55436;DHT22;41307;53.142;6.430;2022-07-06T11:58:59;25.70;65.30
55436;DHT22;41307;53.142;6.430;2022-07-06T12:01:28;25.50;64.40
55436;DHT22;41307;53.142;6.430;2022-07-06T12:03:58;25.50;65.20
55436;DHT22;41307;53.142;6.430;2022-07-06T12:06:25;25.60;65.20
55436;DHT22;41307;53.142;6.430;2022-07-06T12:08:59;25.70;65.70
55436;DHT22;41307;53.142;6.430;2022-07-06T12:11:30;25.60;65.10
55436;DHT22;41307;53.142;6.430;2022-07-06T12:14:16;25.40;64.80
55436;DHT22;41307;53.142;6.430;2022-07-06T12:16:43;25.10;65.90
55436;DHT22;41307;53.142;6.430;2022-07-06T12:19:09;24.90;66.70
55436;DHT22;41307;53.142;6.430;2022-07-06T12:21:41;24.80;67.10
55436;DHT22;41307;53.142;6.430;2022-07-06T12:24:07;24.60;67.30
55436;DHT22;41307;53.142;6.430;2022-07-06T12:26:39;24.60;67.20
55436;DHT22;41307;53.142;6.430;2022-07-06T12:29:08;24.40;66.10
55436;DHT22;41307;53.142;6.430;2022-07-06T12:31:55;24.30;67.10
55436;DHT22;41307;53.142;6.430;2022-07-06T12:34:22;24.40;67.60
55436;DHT22;41307;53.142;6.430;2022-07-06T12:36:53;24.40;67.50
55436;DHT22;41307;53.142;6.430;2022-07-06T12:39:24;24.60;67.70
55436;DHT22;41307;53.142;6.430;2022-07-06T12:41:52;24.60;66.90
55436;DHT22;41307;53.142;6.430;2022-07-06T12:44:21;24.30;65.70
55436;DHT22;41307;53.142;6.430;2022-07-06T12:47:09;24.20;66.40
55436;DHT22;41307;53.142;6.430;2022-07-06T12:49:35;24.00;67.30
55436;DHT22;41307;53.142;6.430;2022-07-06T12:57:23;23.40;68.10
55436;DHT22;41307;53.142;6.430;2022-07-06T13:05:00;23.20;69.20
55436;DHT22;41307;53.142;6.430;2022-07-06T13:07:28;23.30;68.00
55436;DHT22;41307;53.142;6.430;2022-07-06T13:09:57;23.20;67.90
55436;DHT22;41307;53.142;6.430;2022-07-06T13:12:24;23.00;67.70
55436;DHT22;41307;53.142;6.430;2022-07-06T13:14:50;22.90;68.10
55436;DHT22;41307;53.142;6.430;2022-07-06T13:17:17;22.80;68.40
55436;DHT22;41307;53.142;6.430;2022-07-06T13:19:42;22.80;69.00
55436;DHT22;41307;53.142;6.430;2022-07-06T13:22:08;22.60;69.80
55436;DHT22;41307;53.142;6.430;2022-07-06T13:24:34;22.50;70.60
55436;DHT22;41307;53.142;6.430;2022-07-06T13:27:00;22.40;71.20
55436;DHT22;41307;53.142;6.430;2022-07-06T13:29:26;22.30;71.40
55436;DHT22;41307;53.142;6.430;2022-07-06T13:31:52;22.30;71.20
55436;DHT22;41307;53.142;6.430;2022-07-06T13:34:18;22.20;71.40
55436;DHT22;41307;53.142;6.430;2022-07-06T13:36:44;22.00;71.40
55436;DHT22;41307;53.142;6.430;2022-07-06T13:39:11;21.90;71.40
55436;DHT22;41307;53.142;6.430;2022-07-06T13:41:36;21.80;71.30
55436;DHT22;41307;53.142;6.430;2022-07-06T13:44:03;21.80;71.50
55436;DHT22;41307;53.142;6.430;2022-07-06T13:46:29;21.70;71.90
55436;DHT22;41307;53.142;6.430;2022-07-06T13:48:56;21.50;72.60
55436;DHT22;41307;53.142;6.430;2022-07-06T13:51:25;21.60;73.20
55436;DHT22;41307;53.142;6.430;2022-07-06T13:53:52;21.50;72.80
55436;DHT22;41307;53.142;6.430;2022-07-06T13:56:19;21.40;73.00
55436;DHT22;41307;53.142;6.430;2022-07-06T13:58:45;21.40;73.70
55436;DHT22;41307;53.142;6.430;2022-07-06T14:01:11;21.40;74.20
55436;DHT22;41307;53.142;6.430;2022-07-06T14:03:37;21.30;74.30
55436;DHT22;41307;53.142;6.430;2022-07-06T14:06:04;21.20;74.40
55436;DHT22;41307;53.142;6.430;2022-07-06T14:08:32;21.20;75.10
55436;DHT22;41307;53.142;6.430;2022-07-06T14:10:58;21.10;75.40
55436;DHT22;41307;53.142;6.430;2022-07-06T14:13:24;21.10;75.50
55436;DHT22;41307;53.142;6.430;2022-07-06T14:15:50;21.00;75.30
55436;DHT22;41307;53.142;6.430;2022-07-06T14:18:16;20.80;75.60
55436;DHT22;41307;53.142;6.430;2022-07-06T14:20:46;20.70;76.60
55436;DHT22;41307;53.142;6.430;2022-07-06T14:23:13;20.60;77.00
55436;DHT22;41307;53.142;6.430;2022-07-06T14:25:39;20.60;78.60
55436;DHT22;41307;53.142;6.430;2022-07-06T14:28:05;20.40;79.90
55436;DHT22;41307;53.142;6.430;2022-07-06T14:30:32;20.20;81.50
55436;DHT22;41307;53.142;6.430;2022-07-06T14:32:58;20.10;82.70
55436;DHT22;41307;53.142;6.430;2022-07-06T14:35:24;20.10;84.40
55436;DHT22;41307;53.142;6.430;2022-07-06T14:37:50;20.10;84.60
55436;DHT22;41307;53.142;6.430;2022-07-06T14:40:16;20.10;83.70
55436;DHT22;41307;53.142;6.430;2022-07-06T14:42:42;20.10;83.80
55436;DHT22;41307;53.142;6.430;2022-07-06T14:45:08;20.00;83.70
55436;DHT22;41307;53.142;6.430;2022-07-06T14:47:34;20.10;84.10
55436;DHT22;41307;53.142;6.430;2022-07-06T14:50:02;20.10;85.80
55436;DHT22;41307;53.142;6.430;2022-07-06T14:52:28;20.20;88.00
55436;DHT22;41307;53.142;6.430;2022-07-06T14:54:53;20.20;90.10
55436;DHT22;41307;53.142;6.430;2022-07-06T14:57:19;20.20;92.00
55436;DHT22;41307;53.142;6.430;2022-07-06T14:59:45;20.20;93.60
55436;DHT22;41307;53.142;6.430;2022-07-06T15:02:11;20.10;94.50
55436;DHT22;41307;53.142;6.430;2022-07-06T15:04:37;20.00;95.30
55436;DHT22;41307;53.142;6.430;2022-07-06T15:07:03;19.80;95.30
55436;DHT22;41307;53.142;6.430;2022-07-06T15:09:28;19.70;95.90
55436;DHT22;41307;53.142;6.430;2022-07-06T15:11:56;19.50;96.60
55436;DHT22;41307;53.142;6.430;2022-07-06T15:14:22;19.40;97.50
55436;DHT22;41307;53.142;6.430;2022-07-06T15:16:47;19.40;97.80
55436;DHT22;41307;53.142;6.430;2022-07-06T15:19:14;19.40;98.30
55436;DHT22;41307;53.142;6.430;2022-07-06T15:21:40;19.50;98.10
55436;DHT22;41307;53.142;6.430;2022-07-06T15:24:06;19.50;97.90
55436;DHT22;41307;53.142;6.430;2022-07-06T15:26:32;19.60;98.10
55436;DHT22;41307;53.142;6.430;2022-07-06T15:28:58;19.40;99.00
55436;DHT22;41307;53.142;6.430;2022-07-06T15:31:24;19.40;99.90
55436;DHT22;41307;53.142;6.430;2022-07-06T15:33:49;19.40;99.90
55436;DHT22;41307;53.142;6.430;2022-07-06T15:36:15;19.40;99.90
55436;DHT22;41307;53.142;6.430;2022-07-06T15:38:41;19.40;99.90
55436;DHT22;41307;53.142;6.430;2022-07-06T15:41:06;19.30;99.90
55436;DHT22;41307;53.142;6.430;2022-07-06T15:43:33;19.30;99.90
55436;DHT22;41307;53.142;6.430;2022-07-06T15:46:00;19.10;99.90
55436;DHT22;41307;53.142;6.430;2022-07-06T15:48:28;19.00;99.90
55436;DHT22;41307;53.142;6.430;2022-07-06T15:50:55;18.80;99.90
55436;DHT22;41307;53.142;6.430;2022-07-06T15:53:21;18.60;99.90
55436;DHT22;41307;53.142;6.430;2022-07-06T15:55:57;18.40;99.90